createdAt,value
2018-05-01T07:00:59.721Z,22.78
2018-05-01T07:39:38.751Z,24.74
2018-05-01T07:42:08.607Z,24.62
2018-05-01T07:44:38.303Z,25.46
2018-05-01T07:47:08.412Z,26.20
2018-05-01T07:49:38.182Z,26.25
2018-05-01T07:52:07.650Z,26.04
2018-05-01T07:54:37.512Z,25.90
2018-05-01T07:57:07.123Z,26.43
2018-05-01T07:59:37.943Z,26.53
2018-05-01T08:02:07.549Z,26.86
2018-05-01T08:04:38.489Z,26.57
2018-05-01T08:07:08.755Z,26.06
2018-05-01T08:09:38.059Z,26.04
2018-05-01T08:12:08.362Z,25.81
2018-05-01T08:14:38.525Z,25.53
2018-05-01T08:17:07.885Z,26.10
2018-05-01T08:19:37.721Z,26.38
2018-05-01T08:22:07.128Z,26.74
2018-05-01T08:24:36.938Z,26.90
2018-05-01T08:27:06.313Z,27.19
2018-05-01T08:29:35.735Z,27.11
2018-05-01T08:32:05.237Z,27.01
2018-05-01T08:34:35.998Z,26.96
2018-05-01T08:37:05.903Z,26.80
2018-05-01T08:39:35.567Z,26.81
2018-05-01T08:42:05.292Z,26.98
2018-05-01T08:44:35.088Z,26.99
2018-05-01T08:47:04.723Z,27.27
2018-05-01T08:49:34.640Z,27.80
2018-05-01T08:52:04.027Z,28.40
2018-05-01T08:54:33.724Z,28.93
2018-05-01T08:57:04.003Z,28.70
2018-05-01T08:59:33.221Z,28.55
2018-05-01T09:02:02.465Z,28.93
2018-05-01T09:04:32.237Z,29.21
2018-05-01T09:07:01.866Z,29.26
2018-05-01T09:09:31.705Z,29.44
2018-05-01T09:12:01.566Z,29.14
2018-05-01T09:14:31.304Z,29.62
2018-05-01T09:17:01.222Z,29.66
2018-05-01T09:19:31.777Z,29.49
2018-05-01T09:22:01.611Z,29.95
2018-05-01T09:24:31.788Z,30.07
2018-05-01T09:27:01.602Z,30.28
2018-05-01T09:29:31.527Z,30.50
2018-05-01T09:32:01.245Z,30.44
2018-05-01T09:34:31.047Z,30.41
2018-05-01T09:37:00.355Z,30.98
2018-05-01T09:39:30.107Z,31.20
2018-05-01T09:41:59.858Z,30.70
2018-05-01T09:44:29.340Z,31.04
2018-05-01T09:46:59.407Z,31.19
2018-05-01T09:49:48.580Z,31.79
2018-05-01T09:52:18.921Z,31.54
2018-05-01T09:54:49.554Z,31.54
2018-05-01T09:57:19.659Z,31.93
2018-05-01T09:59:49.937Z,32.38
2018-05-01T10:02:20.625Z,32.27
2018-05-01T10:04:50.760Z,32.61
2018-05-01T10:07:21.270Z,32.78
2018-05-01T10:09:51.438Z,32.25
2018-05-01T10:12:22.020Z,32.66
2018-05-01T10:14:52.481Z,32.62
2018-05-01T10:17:22.403Z,32.58
2018-05-01T10:19:52.235Z,33.02
2018-05-01T10:22:22.635Z,32.68
2018-05-01T10:24:52.905Z,32.66
2018-05-01T10:27:22.769Z,32.48
2018-05-01T10:29:53.045Z,32.52
2018-05-01T10:32:23.104Z,32.12
2018-05-01T10:34:53.712Z,32.52
2018-05-01T10:37:23.871Z,32.58
2018-05-01T10:39:54.225Z,33.01
2018-05-01T10:42:24.494Z,33.55
2018-05-01T10:44:54.976Z,33.71
2018-05-01T10:47:24.728Z,33.60
2018-05-01T10:49:55.033Z,33.22
2018-05-01T10:52:25.252Z,33.43
2018-05-01T10:54:55.449Z,33.95
2018-05-01T10:57:25.488Z,33.79
2018-05-01T10:59:55.712Z,34.10
2018-05-01T11:02:25.955Z,33.79
2018-05-01T11:04:56.114Z,33.41
2018-05-01T11:07:26.263Z,33.62
2018-05-01T11:09:56.302Z,33.33
2018-05-01T11:12:26.876Z,33.98
2018-05-01T11:14:57.035Z,34.42
2018-05-01T11:17:26.919Z,34.66
2018-05-01T11:19:57.243Z,34.52
2018-05-01T11:22:27.323Z,34.64
2018-05-01T11:24:57.408Z,35.30
2018-05-01T11:27:27.519Z,34.65
2018-05-01T11:29:57.421Z,34.71
2018-05-01T11:32:27.862Z,34.76
2018-05-01T11:34:58.334Z,34.68
2018-05-01T11:37:28.717Z,34.27
2018-05-01T11:39:59.075Z,34.34
2018-05-01T11:42:29.399Z,34.78
2018-05-01T11:44:59.944Z,34.49
2018-05-01T11:47:30.191Z,34.15
2018-05-01T11:50:00.749Z,34.41
2018-05-01T11:52:31.332Z,34.59
2018-05-01T11:55:01.618Z,34.71
2018-05-01T11:57:31.783Z,34.12
2018-05-01T12:00:02.352Z,34.25
2018-05-01T12:02:32.510Z,34.41
2018-05-01T12:05:03.078Z,34.22
2018-05-01T12:07:33.262Z,34.76
2018-05-01T12:10:03.981Z,35.16
2018-05-01T12:12:34.285Z,34.99
2018-05-01T12:15:04.556Z,34.77
2018-05-01T12:17:34.837Z,34.69
2018-05-01T12:20:05.434Z,34.84
2018-05-01T12:22:35.764Z,35.28
2018-05-01T12:25:06.161Z,34.65
2018-05-01T12:27:36.452Z,34.50
2018-05-01T12:30:06.851Z,34.23
2018-05-01T12:32:36.899Z,34.61
2018-05-01T12:35:07.389Z,34.40
2018-05-01T12:37:37.653Z,34.47
2018-05-01T12:40:08.158Z,34.41
2018-05-01T12:42:38.639Z,34.76
2018-05-01T12:45:10.468Z,33.31
2018-05-01T12:47:40.728Z,33.73
2018-05-01T12:50:11.101Z,34.23
2018-05-01T12:52:41.226Z,34.89
2018-05-01T12:55:11.583Z,34.49
2018-05-01T12:57:41.398Z,33.76
2018-05-01T13:00:11.492Z,34.46
2018-05-01T13:02:41.927Z,33.82
2018-05-01T13:05:13.638Z,34.19
2018-05-01T13:07:43.868Z,34.46
2018-05-01T13:10:14.203Z,33.69
2018-05-01T13:12:44.850Z,33.28
2018-05-01T13:15:15.132Z,33.56
2018-05-01T13:17:45.549Z,33.56
2018-05-01T13:20:15.797Z,33.52
2018-05-01T13:22:46.107Z,33.40
2018-05-01T13:25:16.268Z,33.41
2018-05-01T13:27:46.486Z,33.69
2018-05-01T13:30:16.916Z,33.40
2018-05-01T13:32:47.250Z,33.60
2018-05-01T13:35:17.233Z,33.96
2018-05-01T13:37:47.782Z,33.95
2018-05-01T13:40:17.982Z,34.01
2018-05-01T13:42:49.015Z,34.58
2018-05-01T13:45:19.317Z,34.47
2018-05-01T13:47:49.557Z,33.75
2018-05-01T13:50:21.784Z,33.48
2018-05-01T13:52:51.941Z,33.67
2018-05-01T13:55:22.375Z,32.76
2018-05-01T13:57:52.487Z,32.72
2018-05-01T14:00:22.560Z,32.83
2018-05-01T14:02:53.384Z,32.83
2018-05-01T14:05:23.603Z,33.14
2018-05-01T14:07:53.412Z,32.96
2018-05-01T14:10:23.788Z,32.78
2018-05-01T14:12:53.753Z,32.41
2018-05-01T14:15:24.285Z,32.74
2018-05-01T14:17:54.789Z,32.46
2018-05-01T14:20:25.045Z,32.56
2018-05-01T14:22:55.524Z,32.13
2018-05-01T14:25:25.859Z,31.47
2018-05-01T14:27:56.353Z,31.01
2018-05-01T14:30:26.479Z,31.13
2018-05-01T14:32:57.113Z,30.93
2018-05-01T14:35:26.838Z,31.25
2018-05-01T14:37:56.880Z,31.23
2018-05-01T14:40:27.414Z,31.05
2018-05-01T14:42:57.259Z,31.12
2018-05-01T14:45:27.607Z,30.71
2018-05-01T14:47:57.840Z,30.43
2018-05-01T14:50:28.165Z,30.28
2018-05-01T14:52:58.436Z,30.05
2018-05-01T14:55:28.768Z,29.93
2018-05-01T14:57:59.092Z,30.03
2018-05-01T15:00:29.202Z,29.97
2018-05-01T15:03:05.698Z,30.02
2018-05-01T15:05:36.195Z,29.62
2018-05-01T15:08:06.128Z,29.73
2018-05-01T15:10:36.543Z,29.79
2018-05-01T15:13:06.992Z,29.58
2018-05-01T15:15:37.632Z,29.42
2018-05-01T15:18:07.750Z,29.56
2018-05-01T15:20:38.259Z,29.43
2018-05-01T15:23:08.774Z,29.52
2018-05-01T15:25:38.928Z,29.51
2018-05-01T15:28:08.966Z,29.47
2018-05-01T15:30:39.276Z,29.35
2018-05-01T15:33:09.068Z,29.16
2018-05-01T15:35:39.307Z,29.11
2018-05-01T15:38:09.459Z,28.94
2018-05-01T15:40:39.753Z,28.89
2018-05-01T15:43:10.270Z,28.66
2018-05-01T15:45:40.716Z,28.49
2018-05-01T15:48:10.628Z,28.55
2018-05-01T15:50:41.012Z,28.33
2018-05-01T15:53:11.469Z,28.33
2018-05-01T15:55:41.558Z,28.49
2018-05-01T15:58:11.544Z,28.62
2018-05-01T16:00:41.900Z,28.57
2018-05-01T16:03:12.174Z,28.42
2018-05-01T16:05:42.474Z,28.42
2018-05-01T16:08:12.311Z,28.21
2018-05-01T16:10:42.595Z,28.15
2018-05-01T16:13:12.670Z,28.13
2018-05-01T16:15:43.270Z,28.05
2018-05-01T16:18:13.475Z,28.15
2018-05-01T16:20:43.206Z,28.14
2018-05-01T16:23:13.000Z,28.03
2018-05-01T16:25:43.205Z,27.91
2018-05-01T16:28:13.447Z,27.88
2018-05-01T16:30:43.530Z,27.60
2018-05-01T16:33:13.881Z,27.52
2018-05-01T16:35:44.417Z,27.44
2018-05-01T16:38:14.548Z,27.35
2018-05-01T16:40:44.720Z,27.27
2018-05-01T16:43:14.491Z,27.14
2018-05-01T16:45:44.707Z,26.84
2018-05-01T16:48:15.088Z,26.69
2018-05-01T16:50:45.034Z,26.66
2018-05-01T16:53:15.129Z,26.58
2018-05-01T16:55:45.443Z,26.36
2018-05-01T16:58:15.761Z,26.05
2018-05-01T17:00:45.880Z,25.59
2018-05-01T17:03:16.199Z,25.23
2018-05-01T17:05:46.657Z,24.85
2018-05-01T17:08:16.820Z,24.57
2018-05-01T17:10:47.305Z,24.19
2018-05-01T17:13:17.689Z,23.84
2018-05-01T17:15:48.050Z,23.54
2018-05-01T17:18:18.478Z,23.54
2018-05-01T17:20:48.678Z,23.52
2018-05-01T17:23:18.984Z,23.33
2018-05-01T17:25:49.468Z,22.90
2018-05-01T17:28:19.782Z,22.72
2018-05-01T17:30:51.219Z,21.91
2018-05-01T17:33:21.333Z,21.97
2018-05-01T17:35:51.578Z,22.09
2018-05-01T17:38:21.816Z,21.88
2018-05-01T17:40:51.996Z,21.59
2018-05-01T17:43:22.102Z,21.57
2018-05-01T17:45:52.507Z,21.51
2018-05-01T17:48:22.849Z,21.12
2018-05-01T17:50:53.358Z,21.02
2018-05-01T17:53:23.720Z,20.85
2018-05-01T17:55:53.600Z,20.89
2018-05-01T17:58:23.857Z,20.61
2018-05-01T18:00:54.423Z,20.43
2018-05-01T18:03:24.822Z,20.24
2018-05-01T18:05:55.001Z,20.16
2018-05-01T18:08:25.375Z,20.08
2018-05-01T18:10:55.150Z,19.81
2018-05-01T18:13:25.010Z,19.55
2018-05-01T18:15:55.377Z,19.22
2018-05-01T18:18:25.795Z,18.83
2018-05-01T18:20:56.285Z,18.86
2018-05-01T18:23:26.519Z,19.13
2018-05-01T18:25:57.144Z,19.32
2018-05-01T18:28:27.404Z,19.36
2018-05-01T18:30:57.969Z,19.20
2018-05-01T18:33:28.143Z,19.16
2018-05-01T18:35:58.376Z,18.97
2018-05-01T18:38:28.847Z,18.90
2018-05-01T18:40:59.413Z,18.60
2018-05-01T18:43:29.574Z,18.47
2018-05-01T18:45:59.804Z,18.38
2018-05-01T18:48:30.324Z,18.14
2018-05-01T18:51:00.939Z,18.28
2018-05-01T18:53:31.283Z,18.19
2018-05-01T18:56:01.372Z,18.15
2018-05-01T18:58:31.590Z,18.29
2018-05-01T19:01:01.945Z,18.32
2018-05-01T19:03:32.084Z,18.12
2018-05-01T19:06:02.271Z,18.04
2018-05-01T19:08:32.972Z,17.95
2018-05-01T19:11:02.728Z,17.90
2018-05-01T19:13:33.032Z,17.80
2018-05-01T19:16:03.456Z,17.65
2018-05-01T19:18:33.832Z,17.53
2018-05-01T19:21:04.474Z,17.39
2018-05-01T19:23:35.223Z,17.17
2018-05-01T19:26:05.140Z,17.18
2018-05-01T19:28:35.886Z,17.16
2018-05-01T19:31:06.686Z,17.06
2018-05-01T19:33:37.054Z,16.96
2018-05-01T19:36:07.961Z,16.78
2018-05-01T19:38:38.229Z,16.67
2018-05-01T19:41:08.719Z,16.85
2018-05-01T19:43:38.996Z,16.96
2018-05-01T19:46:09.802Z,16.95
2018-05-01T19:48:40.392Z,16.75
2018-05-01T19:51:11.313Z,16.60
2018-05-01T19:53:42.006Z,16.24
2018-05-01T19:56:12.800Z,16.01
2018-05-01T19:58:43.009Z,15.96
2018-05-01T20:01:13.580Z,16.06
2018-05-01T20:03:43.652Z,16.23
2018-05-01T20:06:13.944Z,16.26
2018-05-01T20:08:44.070Z,16.26
2018-05-01T20:11:14.040Z,16.31
2018-05-01T20:13:44.684Z,16.21
2018-05-01T20:16:15.279Z,16.08
2018-05-01T20:18:45.565Z,16.11
2018-05-01T20:21:17.184Z,16.20
2018-05-01T20:23:47.821Z,16.19
2018-05-01T20:26:18.515Z,16.18
2018-05-01T20:28:48.913Z,16.17
2018-05-01T20:31:19.467Z,16.20
2018-05-01T20:33:49.791Z,16.37
2018-05-01T20:36:20.254Z,16.25
2018-05-01T20:38:50.509Z,15.77
2018-05-01T20:41:20.889Z,15.66
2018-05-01T20:43:51.111Z,15.75
2018-05-01T20:46:21.257Z,15.92
2018-05-01T20:48:51.846Z,15.82
2018-05-01T20:51:22.055Z,15.74
2018-05-01T20:53:52.431Z,15.67
2018-05-01T20:56:22.701Z,15.71
2018-05-01T20:58:53.167Z,15.73
2018-05-01T21:01:23.251Z,15.68
2018-05-01T21:03:53.574Z,15.66
2018-05-01T21:06:23.990Z,15.61
2018-05-01T21:08:54.431Z,15.64
2018-05-01T21:11:24.576Z,15.51
2018-05-01T21:13:55.074Z,15.55
2018-05-01T21:16:25.079Z,15.51
2018-05-01T21:18:55.549Z,15.46
2018-05-01T21:21:25.840Z,15.29
2018-05-01T21:23:56.131Z,15.42
2018-05-01T21:26:26.499Z,15.43
2018-05-01T21:28:56.813Z,15.37
2018-05-01T21:31:27.030Z,15.32
2018-05-01T21:33:57.456Z,15.24
2018-05-01T21:36:27.821Z,15.21
2018-05-01T21:38:58.094Z,15.17
2018-05-01T21:41:28.517Z,15.23
2018-05-01T21:43:58.769Z,15.03
2018-05-01T21:46:29.094Z,15.11
2018-05-01T21:48:59.429Z,15.07
2018-05-01T21:51:29.240Z,15.03
2018-05-01T21:53:59.510Z,15.04
2018-05-01T21:56:29.875Z,14.98
2018-05-01T21:59:00.059Z,14.96
2018-05-01T22:01:30.558Z,14.89
2018-05-01T22:04:01.108Z,15.00
2018-05-01T22:06:31.339Z,14.90
2018-05-01T22:09:01.859Z,14.65
2018-05-01T22:11:32.377Z,14.47
2018-05-01T22:14:02.925Z,14.49
2018-05-01T22:16:33.198Z,14.43
2018-05-01T22:19:03.560Z,14.33
2018-05-01T22:21:34.005Z,14.24
2018-05-01T22:24:04.195Z,14.07
2018-05-01T22:26:34.494Z,13.91
2018-05-01T22:29:05.069Z,13.93
2018-05-01T22:31:35.290Z,13.90
2018-05-01T22:34:05.769Z,13.93
2018-05-01T22:36:36.129Z,13.98
2018-05-01T22:39:06.747Z,14.03
2018-05-01T22:41:37.225Z,13.82
2018-05-01T22:44:07.613Z,13.74
2018-05-01T22:46:37.807Z,13.59
2018-05-01T22:49:08.149Z,13.70
2018-05-01T22:51:38.801Z,13.60
2018-05-01T22:54:09.265Z,13.46
2018-05-01T22:56:39.556Z,13.54
2018-05-01T22:59:10.127Z,13.47
2018-05-01T23:01:40.444Z,13.51
2018-05-01T23:04:10.899Z,13.59
2018-05-01T23:06:41.190Z,13.53
2018-05-01T23:09:11.319Z,13.27
2018-05-01T23:11:41.386Z,12.98
2018-05-01T23:14:11.737Z,12.97
2018-05-01T23:16:41.962Z,12.96
2018-05-01T23:19:12.381Z,12.92
2018-05-01T23:21:42.408Z,12.88
2018-05-01T23:24:12.630Z,12.51
2018-05-01T23:26:42.746Z,12.45
2018-05-01T23:29:13.107Z,12.45
2018-05-01T23:31:43.441Z,12.65
2018-05-01T23:34:13.739Z,12.75
2018-05-01T23:36:43.969Z,12.80
2018-05-01T23:39:14.180Z,12.86
2018-05-01T23:41:44.712Z,12.86
2018-05-01T23:44:15.158Z,12.82
2018-05-01T23:46:45.149Z,12.72
2018-05-01T23:49:15.064Z,12.58
2018-05-01T23:51:45.550Z,12.41
2018-05-01T23:54:15.741Z,12.23
2018-05-01T23:56:45.885Z,12.21
2018-05-01T23:59:16.080Z,12.32
